sensor_id;sensor_type;location;lat;lon;timestamp;temperature;humidity
9450;DHT22;4763;48.370;10.874;2023-11-19T00:02:23;6.60;99.90
9450;DHT22;4763;48.370;10.874;2023-11-19T00:04:50;6.60;99.90
9450;DHT22;4763;48.370;10.874;2023-11-19T00:07:17;6.60;99.90
9450;DHT22;4763;48.370;10.874;2023-11-19T00:09:44;6.60;99.90
9450;DHT22;4763;48.370;10.874;2023-11-19T00:12:10;6.60;99.90
9450;DHT22;4763;48.370;10.874;2023-11-19T00:14:38;6.60;99.90
9450;DHT22;4763;48.370;10.874;2023-11-19T00:17:05;6.70;99.90
9450;DHT22;4763;48.370;10.874;2023-11-19T00:19:33;6.70;99.90
9450;DHT22;4763;48.370;10.874;2023-11-19T00:22:00;6.80;99.90
9450;DHT22;4763;48.370;10.874;2023-11-19T00:24:28;6.80;99.90
9450;DHT22;4763;48.370;10.874;2023-11-19T00:26:56;6.80;99.90
9450;DHT22;4763;48.370;10.874;2023-11-19T00:29:23;6.80;99.90
9450;DHT22;4763;48.370;10.874;2023-11-19T00:31:50;6.80;99.90
9450;DHT22;4763;48.370;10.874;2023-11-19T00:34:17;6.80;99.90
9450;DHT22;4763;48.370;10.874;2023-11-19T00:36:48;6.90;99.90
9450;DHT22;4763;48.370;10.874;2023-11-19T00:39:14;6.80;99.90
9450;DHT22;4763;48.370;10.874;2023-11-19T00:41:41;6.90;99.90
9450;DHT22;4763;48.370;10.874;2023-11-19T00:44:08;7.00;99.90
9450;DHT22;4763;48.370;10.874;2023-11-19T00:46:35;6.90;99.90
9450;DHT22;4763;48.370;10.874;2023-11-19T00:49:02;7.00;99.90
9450;DHT22;4763;48.370;10.874;2023-11-19T00:51:29;7.10;99.90
9450;DHT22;4763;48.370;10.874;2023-11-19T00:53:58;7.00;99.90
9450;DHT22;4763;48.370;10.874;2023-11-19T00:56:26;7.10;99.90
9450;DHT22;4763;48.370;10.874;2023-11-19T00:58:53;7.10;99.90
9450;DHT22;4763;48.370;10.874;2023-11-19T01:01:21;7.10;99.90
9450;DHT22;4763;48.370;10.874;2023-11-19T01:03:48;7.10;99.90
9450;DHT22;4763;48.370;10.874;2023-11-19T01:06:14;7.20;99.90
9450;DHT22;4763;48.370;10.874;2023-11-19T01:08:42;7.30;99.90
9450;DHT22;4763;48.370;10.874;2023-11-19T01:11:20;7.30;99.90
9450;DHT22;4763;48.370;10.874;2023-11-19T01:13:47;7.40;99.90
9450;DHT22;4763;48.370;10.874;2023-11-19T01:16:14;7.40;99.90
9450;DHT22;4763;48.370;10.874;2023-11-19T01:18:41;7.60;99.90
9450;DHT22;4763;48.370;10.874;2023-11-19T01:21:07;7.60;99.90
9450;DHT22;4763;48.370;10.874;2023-11-19T01:23:35;7.60;99.90
9450;DHT22;4763;48.370;10.874;2023-11-19T01:26:02;7.60;99.90
9450;DHT22;4763;48.370;10.874;2023-11-19T01:28:32;7.70;99.90
9450;DHT22;4763;48.370;10.874;2023-11-19T01:30:59;7.70;99.90
9450;DHT22;4763;48.370;10.874;2023-11-19T01:33:25;7.70;99.90
9450;DHT22;4763;48.370;10.874;2023-11-19T01:35:53;7.70;99.90
9450;DHT22;4763;48.370;10.874;2023-11-19T01:38:20;7.70;99.90
9450;DHT22;4763;48.370;10.874;2023-11-19T01:40:46;7.80;99.90
9450;DHT22;4763;48.370;10.874;2023-11-19T01:43:33;7.80;99.90
9450;DHT22;4763;48.370;10.874;2023-11-19T01:46:00;7.90;99.90
9450;DHT22;4763;48.370;10.874;2023-11-19T01:48:27;7.90;99.90
9450;DHT22;4763;48.370;10.874;2023-11-19T01:50:54;7.90;99.90
9450;DHT22;4763;48.370;10.874;2023-11-19T01:53:21;8.10;99.90
9450;DHT22;4763;48.370;10.874;2023-11-19T01:55:48;8.10;99.90
9450;DHT22;4763;48.370;10.874;2023-11-19T01:58:16;8.20;99.90
9450;DHT22;4763;48.370;10.874;2023-11-19T02:00:45;8.10;99.90
9450;DHT22;4763;48.370;10.874;2023-11-19T02:03:15;8.20;99.90
9450;DHT22;4763;48.370;10.874;2023-11-19T02:05:41;8.10;99.90
9450;DHT22;4763;48.370;10.874;2023-11-19T02:08:09;8.10;99.90
9450;DHT22;4763;48.370;10.874;2023-11-19T02:10:36;8.10;99.90
9450;DHT22;4763;48.370;10.874;2023-11-19T02:13:02;8.20;99.90
9450;DHT22;4763;48.370;10.874;2023-11-19T02:15:31;8.20;99.90
9450;DHT22;4763;48.370;10.874;2023-11-19T02:18:17;8.20;99.90
9450;DHT22;4763;48.370;10.874;2023-11-19T02:20:44;8.20;99.90
9450;DHT22;4763;48.370;10.874;2023-11-19T02:23:12;8.30;99.90
9450;DHT22;4763;48.370;10.874;2023-11-19T02:25:40;8.30;99.90
9450;DHT22;4763;48.370;10.874;2023-11-19T02:28:09;8.20;99.90
9450;DHT22;4763;48.370;10.874;2023-11-19T02:30:37;8.30;99.90
9450;DHT22;4763;48.370;10.874;2023-11-19T02:33:04;8.30;99.90
9450;DHT22;4763;48.370;10.874;2023-11-19T02:35:32;8.30;99.90
9450;DHT22;4763;48.370;10.874;2023-11-19T02:37:59;8.30;99.90
9450;DHT22;4763;48.370;10.874;2023-11-19T02:40:26;8.30;99.90
9450;DHT22;4763;48.370;10.874;2023-11-19T02:42:53;8.30;99.90
9450;DHT22;4763;48.370;10.874;2023-11-19T02:45:22;8.30;99.90
9450;DHT22;4763;48.370;10.874;2023-11-19T02:47:49;8.30;99.90
9450;DHT22;4763;48.370;10.874;2023-11-19T02:50:18;8.30;99.90
9450;DHT22;4763;48.370;10.874;2023-11-19T02:52:51;8.30;99.90
9450;DHT22;4763;48.370;10.874;2023-11-19T02:55:19;8.30;99.90
9450;DHT22;4763;48.370;10.874;2023-11-19T02:57:46;8.30;99.90
9450;DHT22;4763;48.370;10.874;2023-11-19T03:00:14;8.30;99.90
9450;DHT22;4763;48.370;10.874;2023-11-19T03:02:43;8.40;99.90
9450;DHT22;4763;48.370;10.874;2023-11-19T03:05:12;8.30;99.90
9450;DHT22;4763;48.370;10.874;2023-11-19T03:07:40;8.40;99.90
9450;DHT22;4763;48.370;10.874;2023-11-19T03:10:08;8.40;99.90
9450;DHT22;4763;48.370;10.874;2023-11-19T03:12:38;8.40;99.90
9450;DHT22;4763;48.370;10.874;2023-11-19T03:15:05;8.30;99.90
9450;DHT22;4763;48.370;10.874;2023-11-19T03:17:32;8.40;99.90
9450;DHT22;4763;48.370;10.874;2023-11-19T03:20:00;8.30;99.90
9450;DHT22;4763;48.370;10.874;2023-11-19T03:22:27;8.40;99.90
9450;DHT22;4763;48.370;10.874;2023-11-19T03:24:54;8.30;99.90
9450;DHT22;4763;48.370;10.874;2023-11-19T03:27:21;8.40;99.90
9450;DHT22;4763;48.370;10.874;2023-11-19T03:29:48;8.40;99.90
9450;DHT22;4763;48.370;10.874;2023-11-19T03:32:15;8.40;99.90
9450;DHT22;4763;48.370;10.874;2023-11-19T03:34:41;8.40;99.90
9450;DHT22;4763;48.370;10.874;2023-11-19T03:37:09;8.40;99.90
9450;DHT22;4763;48.370;10.874;2023-11-19T03:39:36;8.40;99.90
9450;DHT22;4763;48.370;10.874;2023-11-19T03:42:04;8.50;99.90
9450;DHT22;4763;48.370;10.874;2023-11-19T03:44:30;8.50;99.90
9450;DHT22;4763;48.370;10.874;2023-11-19T03:46:57;8.50;99.90
9450;DHT22;4763;48.370;10.874;2023-11-19T03:49:24;8.50;99.90
9450;DHT22;4763;48.370;10.874;2023-11-19T03:51:51;8.50;99.90
9450;DHT22;4763;48.370;10.874;2023-11-19T03:54:19;8.50;99.90
9450;DHT22;4763;48.370;10.874;2023-11-19T03:56:46;8.50;99.90
9450;DHT22;4763;48.370;10.874;2023-11-19T03:59:13;8.50;99.90
9450;DHT22;4763;48.370;10.874;2023-11-19T04:01:40;8.50;99.90
9450;DHT22;4763;48.370;10.874;2023-11-19T04:04:07;8.50;99.90
9450;DHT22;4763;48.370;10.874;2023-11-19T04:06:34;8.40;99.90
9450;DHT22;4763;48.370;10.874;2023-11-19T04:09:01;8.50;99.90
9450;DHT22;4763;48.370;10.874;2023-11-19T04:11:29;8.50;99.90
9450;DHT22;4763;48.370;10.874;2023-11-19T04:13:56;8.50;99.90
9450;DHT22;4763;48.370;10.874;2023-11-19T04:16:26;8.50;99.90
9450;DHT22;4763;48.370;10.874;2023-11-19T04:18:54;8.60;99.90
9450;DHT22;4763;48.370;10.874;2023-11-19T04:21:21;8.60;99.90
9450;DHT22;4763;48.370;10.874;2023-11-19T04:23:48;8.60;99.90
9450;DHT22;4763;48.370;10.874;2023-11-19T04:26:15;8.70;99.90
9450;DHT22;4763;48.370;10.874;2023-11-19T04:28:43;8.70;99.90
9450;DHT22;4763;48.370;10.874;2023-11-19T04:31:10;8.70;99.90
9450;DHT22;4763;48.370;10.874;2023-11-19T04:33:37;8.70;99.90
9450;DHT22;4763;48.370;10.874;2023-11-19T04:36:04;8.70;99.90
9450;DHT22;4763;48.370;10.874;2023-11-19T04:38:31;8.70;99.90
9450;DHT22;4763;48.370;10.874;2023-11-19T04:40:58;8.80;99.90
9450;DHT22;4763;48.370;10.874;2023-11-19T04:43:25;8.80;99.90
9450;DHT22;4763;48.370;10.874;2023-11-19T04:45:53;8.80;99.90
9450;DHT22;4763;48.370;10.874;2023-11-19T04:48:20;8.70;99.90
9450;DHT22;4763;48.370;10.874;2023-11-19T04:50:47;8.80;99.90
9450;DHT22;4763;48.370;10.874;2023-11-19T04:53:14;8.90;99.90
9450;DHT22;4763;48.370;10.874;2023-11-19T04:55:41;8.80;99.90
9450;DHT22;4763;48.370;10.874;2023-11-19T04:58:08;8.80;99.90
9450;DHT22;4763;48.370;10.874;2023-11-19T05:00:35;8.90;99.90
9450;DHT22;4763;48.370;10.874;2023-11-19T05:03:03;8.90;99.90
9450;DHT22;4763;48.370;10.874;2023-11-19T05:05:29;8.90;99.90
9450;DHT22;4763;48.370;10.874;2023-11-19T05:07:57;8.90;99.90
9450;DHT22;4763;48.370;10.874;2023-11-19T05:10:24;9.00;99.90
9450;DHT22;4763;48.370;10.874;2023-11-19T05:12:51;8.90;99.90
9450;DHT22;4763;48.370;10.874;2023-11-19T05:15:18;9.00;99.90
9450;DHT22;4763;48.370;10.874;2023-11-19T05:17:44;9.00;99.90
9450;DHT22;4763;48.370;10.874;2023-11-19T05:20:13;9.10;99.90
9450;DHT22;4763;48.370;10.874;2023-11-19T05:22:41;9.00;99.90
9450;DHT22;4763;48.370;10.874;2023-11-19T05:25:08;9.00;99.90
9450;DHT22;4763;48.370;10.874;2023-11-19T05:27:36;9.00;99.90
9450;DHT22;4763;48.370;10.874;2023-11-19T05:30:04;9.00;99.90
9450;DHT22;4763;48.370;10.874;2023-11-19T05:32:32;9.10;99.90
9450;DHT22;4763;48.370;10.874;2023-11-19T05:34:59;9.10;99.90
9450;DHT22;4763;48.370;10.874;2023-11-19T05:37:28;9.10;99.90
9450;DHT22;4763;48.370;10.874;2023-11-19T05:39:55;9.00;99.90
9450;DHT22;4763;48.370;10.874;2023-11-19T05:42:22;9.10;99.90
9450;DHT22;4763;48.370;10.874;2023-11-19T05:44:49;9.10;99.90
9450;DHT22;4763;48.370;10.874;2023-11-19T05:47:17;9.10;99.90
9450;DHT22;4763;48.370;10.874;2023-11-19T05:49:44;9.10;99.90
9450;DHT22;4763;48.370;10.874;2023-11-19T05:52:11;9.10;99.90
9450;DHT22;4763;48.370;10.874;2023-11-19T05:54:39;9.10;99.90
9450;DHT22;4763;48.370;10.874;2023-11-19T05:57:06;9.20;99.90
9450;DHT22;4763;48.370;10.874;2023-11-19T05:59:34;9.10;99.90
9450;DHT22;4763;48.370;10.874;2023-11-19T06:02:01;9.10;99.90
9450;DHT22;4763;48.370;10.874;2023-11-19T06:04:28;9.10;99.90
9450;DHT22;4763;48.370;10.874;2023-11-19T06:06:55;9.10;99.90
9450;DHT22;4763;48.370;10.874;2023-11-19T06:09:22;9.10;99.90
9450;DHT22;4763;48.370;10.874;2023-11-19T06:11:51;9.10;99.90
9450;DHT22;4763;48.370;10.874;2023-11-19T06:14:18;9.10;99.90
9450;DHT22;4763;48.370;10.874;2023-11-19T06:16:45;9.10;99.90
9450;DHT22;4763;48.370;10.874;2023-11-19T06:19:11;9.30;99.90
9450;DHT22;4763;48.370;10.874;2023-11-19T06:21:38;9.20;99.90
9450;DHT22;4763;48.370;10.874;2023-11-19T06:24:05;9.20;99.90
9450;DHT22;4763;48.370;10.874;2023-11-19T06:26:32;9.30;99.90
9450;DHT22;4763;48.370;10.874;2023-11-19T06:29:00;9.30;99.90
9450;DHT22;4763;48.370;10.874;2023-11-19T06:31:27;9.30;99.90
9450;DHT22;4763;48.370;10.874;2023-11-19T06:33:54;9.40;99.90
9450;DHT22;4763;48.370;10.874;2023-11-19T06:36:21;9.40;99.90
9450;DHT22;4763;48.370;10.874;2023-11-19T06:38:48;9.40;99.90
9450;DHT22;4763;48.370;10.874;2023-11-19T06:41:14;9.40;99.90
9450;DHT22;4763;48.370;10.874;2023-11-19T06:43:41;9.50;99.90
9450;DHT22;4763;48.370;10.874;2023-11-19T06:46:16;9.50;99.90
9450;DHT22;4763;48.370;10.874;2023-11-19T06:48:43;9.50;99.90
9450;DHT22;4763;48.370;10.874;2023-11-19T06:51:10;9.50;99.90
9450;DHT22;4763;48.370;10.874;2023-11-19T06:53:37;9.50;99.90
9450;DHT22;4763;48.370;10.874;2023-11-19T06:56:06;9.50;99.90
9450;DHT22;4763;48.370;10.874;2023-11-19T06:58:43;9.40;99.90
9450;DHT22;4763;48.370;10.874;2023-11-19T07:01:10;9.50;99.90
9450;DHT22;4763;48.370;10.874;2023-11-19T07:03:38;9.50;99.90
9450;DHT22;4763;48.370;10.874;2023-11-19T07:06:06;9.60;99.90
9450;DHT22;4763;48.370;10.874;2023-11-19T07:08:32;9.60;99.90
9450;DHT22;4763;48.370;10.874;2023-11-19T07:10:59;9.60;99.90
9450;DHT22;4763;48.370;10.874;2023-11-19T07:13:26;9.60;99.90
9450;DHT22;4763;48.370;10.874;2023-11-19T07:15:53;9.70;99.90
9450;DHT22;4763;48.370;10.874;2023-11-19T07:18:20;9.80;99.90
9450;DHT22;4763;48.370;10.874;2023-11-19T07:20:49;9.70;99.90
9450;DHT22;4763;48.370;10.874;2023-11-19T07:23:15;9.70;99.90
9450;DHT22;4763;48.370;10.874;2023-11-19T07:25:42;9.80;99.90
9450;DHT22;4763;48.370;10.874;2023-11-19T07:28:10;9.90;99.90
9450;DHT22;4763;48.370;10.874;2023-11-19T07:30:38;9.90;99.90
9450;DHT22;4763;48.370;10.874;2023-11-19T07:33:04;9.90;99.90
9450;DHT22;4763;48.370;10.874;2023-11-19T07:35:31;10.00;99.90
9450;DHT22;4763;48.370;10.874;2023-11-19T07:37:59;10.00;99.90
9450;DHT22;4763;48.370;10.874;2023-11-19T07:40:26;10.00;99.90
9450;DHT22;4763;48.370;10.874;2023-11-19T07:42:53;10.10;99.90
9450;DHT22;4763;48.370;10.874;2023-11-19T07:45:20;10.10;99.90
9450;DHT22;4763;48.370;10.874;2023-11-19T07:47:47;10.10;99.90
9450;DHT22;4763;48.370;10.874;2023-11-19T07:50:14;10.20;99.90
9450;DHT22;4763;48.370;10.874;2023-11-19T07:52:42;10.20;99.90
9450;DHT22;4763;48.370;10.874;2023-11-19T07:55:10;10.20;99.90
9450;DHT22;4763;48.370;10.874;2023-11-19T07:57:37;10.20;99.90
9450;DHT22;4763;48.370;10.874;2023-11-19T08:00:05;10.30;99.90
9450;DHT22;4763;48.370;10.874;2023-11-19T08:02:32;10.30;99.90
9450;DHT22;4763;48.370;10.874;2023-11-19T08:04:59;10.40;99.90
9450;DHT22;4763;48.370;10.874;2023-11-19T08:07:26;10.30;99.90
9450;DHT22;4763;48.370;10.874;2023-11-19T08:09:52;10.40;99.90
9450;DHT22;4763;48.370;10.874;2023-11-19T08:12:21;10.40;99.90
9450;DHT22;4763;48.370;10.874;2023-11-19T08:14:47;10.50;99.90
9450;DHT22;4763;48.370;10.874;2023-11-19T08:17:14;10.60;99.90
9450;DHT22;4763;48.370;10.874;2023-11-19T08:19:41;10.50;99.90
9450;DHT22;4763;48.370;10.874;2023-11-19T08:22:08;10.60;99.90
9450;DHT22;4763;48.370;10.874;2023-11-19T08:24:35;10.60;99.90
9450;DHT22;4763;48.370;10.874;2023-11-19T08:27:02;10.60;99.90
9450;DHT22;4763;48.370;10.874;2023-11-19T08:29:30;10.60;99.90
9450;DHT22;4763;48.370;10.874;2023-11-19T08:31:57;10.70;99.90
9450;DHT22;4763;48.370;10.874;2023-11-19T08:34:25;10.70;99.90
9450;DHT22;4763;48.370;10.874;2023-11-19T08:36:51;10.70;99.90
9450;DHT22;4763;48.370;10.874;2023-11-19T08:39:19;10.80;99.90
9450;DHT22;4763;48.370;10.874;2023-11-19T08:41:46;10.80;99.90
9450;DHT22;4763;48.370;10.874;2023-11-19T08:44:13;10.80;99.90
9450;DHT22;4763;48.370;10.874;2023-11-19T08:46:47;10.80;99.90
9450;DHT22;4763;48.370;10.874;2023-11-19T08:49:14;10.80;99.90
9450;DHT22;4763;48.370;10.874;2023-11-19T08:51:41;10.80;99.90
9450;DHT22;4763;48.370;10.874;2023-11-19T08:54:08;10.80;99.90
9450;DHT22;4763;48.370;10.874;2023-11-19T08:56:35;10.90;99.90
9450;DHT22;4763;48.370;10.874;2023-11-19T08:59:01;10.90;99.90
9450;DHT22;4763;48.370;10.874;2023-11-19T09:01:29;11.00;99.90
9450;DHT22;4763;48.370;10.874;2023-11-19T09:03:57;11.10;99.90
9450;DHT22;4763;48.370;10.874;2023-11-19T09:06:24;11.20;99.90
9450;DHT22;4763;48.370;10.874;2023-11-19T09:08:51;11.30;99.90
9450;DHT22;4763;48.370;10.874;2023-11-19T09:11:18;11.30;99.90
9450;DHT22;4763;48.370;10.874;2023-11-19T09:13:45;11.30;99.90
9450;DHT22;4763;48.370;10.874;2023-11-19T09:16:11;11.20;99.90
9450;DHT22;4763;48.370;10.874;2023-11-19T09:18:38;11.30;99.90
9450;DHT22;4763;48.370;10.874;2023-11-19T09:21:07;11.20;99.90
9450;DHT22;4763;48.370;10.874;2023-11-19T09:23:34;11.30;99.90
9450;DHT22;4763;48.370;10.874;2023-11-19T09:26:04;11.40;99.90
9450;DHT22;4763;48.370;10.874;2023-11-19T09:28:32;11.50;99.90
9450;DHT22;4763;48.370;10.874;2023-11-19T09:30:58;11.60;99.90
9450;DHT22;4763;48.370;10.874;2023-11-19T09:33:25;11.60;99.90
9450;DHT22;4763;48.370;10.874;2023-11-19T09:35:52;11.70;99.90
9450;DHT22;4763;48.370;10.874;2023-11-19T09:38:21;11.70;99.90
9450;DHT22;4763;48.370;10.874;2023-11-19T09:40:47;11.90;99.90
9450;DHT22;4763;48.370;10.874;2023-11-19T09:43:15;12.00;99.90
9450;DHT22;4763;48.370;10.874;2023-11-19T09:45:48;12.10;99.90
9450;DHT22;4763;48.370;10.874;2023-11-19T09:48:16;12.30;99.90
9450;DHT22;4763;48.370;10.874;2023-11-19T09:50:44;12.50;99.90
9450;DHT22;4763;48.370;10.874;2023-11-19T09:53:11;12.60;99.90
9450;DHT22;4763;48.370;10.874;2023-11-19T09:55:41;12.70;99.90
9450;DHT22;4763;48.370;10.874;2023-11-19T09:58:08;12.80;99.90
9450;DHT22;4763;48.370;10.874;2023-11-19T10:00:36;12.80;99.90
9450;DHT22;4763;48.370;10.874;2023-11-19T10:03:04;12.80;99.90
9450;DHT22;4763;48.370;10.874;2023-11-19T10:05:32;12.80;99.90
9450;DHT22;4763;48.370;10.874;2023-11-19T10:07:59;12.90;99.90
9450;DHT22;4763;48.370;10.874;2023-11-19T10:10:28;13.00;99.90
9450;DHT22;4763;48.370;10.874;2023-11-19T10:12:56;13.20;99.90
9450;DHT22;4763;48.370;10.874;2023-11-19T10:15:26;13.30;99.90
9450;DHT22;4763;48.370;10.874;2023-11-19T10:17:55;13.40;99.90
9450;DHT22;4763;48.370;10.874;2023-11-19T10:20:22;13.40;99.90
9450;DHT22;4763;48.370;10.874;2023-11-19T10:22:52;13.40;99.90
9450;DHT22;4763;48.370;10.874;2023-11-19T10:25:22;13.40;99.90
9450;DHT22;4763;48.370;10.874;2023-11-19T10:27:49;13.60;99.90
9450;DHT22;4763;48.370;10.874;2023-11-19T10:30:20;13.50;99.90
9450;DHT22;4763;48.370;10.874;2023-11-19T10:33:03;13.50;99.90
9450;DHT22;4763;48.370;10.874;2023-11-19T10:35:30;13.60;99.90
9450;DHT22;4763;48.370;10.874;2023-11-19T10:37:59;13.50;99.90
9450;DHT22;4763;48.370;10.874;2023-11-19T10:40:38;13.40;99.90
9450;DHT22;4763;48.370;10.874;2023-11-19T10:43:05;13.30;99.90
9450;DHT22;4763;48.370;10.874;2023-11-19T10:45:34;13.30;99.90
9450;DHT22;4763;48.370;10.874;2023-11-19T10:48:03;13.20;99.90
9450;DHT22;4763;48.370;10.874;2023-11-19T10:50:32;13.20;99.90
9450;DHT22;4763;48.370;10.874;2023-11-19T10:53:00;13.20;99.90
9450;DHT22;4763;48.370;10.874;2023-11-19T10:55:28;13.10;99.90
9450;DHT22;4763;48.370;10.874;2023-11-19T10:57:59;13.10;99.90
9450;DHT22;4763;48.370;10.874;2023-11-19T11:00:29;13.10;99.90
9450;DHT22;4763;48.370;10.874;2023-11-19T11:03:00;13.10;99.90
9450;DHT22;4763;48.370;10.874;2023-11-19T11:05:27;13.10;99.90
9450;DHT22;4763;48.370;10.874;2023-11-19T11:07:55;13.10;99.90
9450;DHT22;4763;48.370;10.874;2023-11-19T11:10:25;13.10;99.90
9450;DHT22;4763;48.370;10.874;2023-11-19T11:12:52;13.10;99.90
9450;DHT22;4763;48.370;10.874;2023-11-19T11:15:25;13.10;99.90
9450;DHT22;4763;48.370;10.874;2023-11-19T11:17:56;13.30;99.90
9450;DHT22;4763;48.370;10.874;2023-11-19T11:20:25;13.40;99.90
9450;DHT22;4763;48.370;10.874;2023-11-19T11:23:02;13.50;99.90
9450;DHT22;4763;48.370;10.874;2023-11-19T11:25:40;13.60;99.90
9450;DHT22;4763;48.370;10.874;2023-11-19T11:28:19;13.60;99.90
9450;DHT22;4763;48.370;10.874;2023-11-19T11:31:00;13.60;99.90
9450;DHT22;4763;48.370;10.874;2023-11-19T11:33:38;13.60;99.90
9450;DHT22;4763;48.370;10.874;2023-11-19T11:36:17;13.60;99.90
9450;DHT22;4763;48.370;10.874;2023-11-19T11:38:48;13.60;99.90
9450;DHT22;4763;48.370;10.874;2023-11-19T11:41:16;13.60;99.90
9450;DHT22;4763;48.370;10.874;2023-11-19T11:43:45;13.70;99.90
9450;DHT22;4763;48.370;10.874;2023-11-19T11:49:13;13.80;99.90
9450;DHT22;4763;48.370;10.874;2023-11-19T11:51:59;13.80;99.90
9450;DHT22;4763;48.370;10.874;2023-11-19T11:54:26;13.90;99.90
9450;DHT22;4763;48.370;10.874;2023-11-19T11:57:16;13.90;99.90
9450;DHT22;4763;48.370;10.874;2023-11-19T11:59:47;13.90;99.90
9450;DHT22;4763;48.370;10.874;2023-11-19T12:02:15;14.00;99.90
9450;DHT22;4763;48.370;10.874;2023-11-19T12:04:43;14.00;99.90
9450;DHT22;4763;48.370;10.874;2023-11-19T12:07:16;14.10;99.90
9450;DHT22;4763;48.370;10.874;2023-11-19T12:09:47;14.10;99.90
9450;DHT22;4763;48.370;10.874;2023-11-19T12:12:18;14.00;99.90
9450;DHT22;4763;48.370;10.874;2023-11-19T12:15:03;13.90;99.90
9450;DHT22;4763;48.370;10.874;2023-11-19T12:17:42;14.10;99.90
9450;DHT22;4763;48.370;10.874;2023-11-19T12:20:11;14.20;99.90
9450;DHT22;4763;48.370;10.874;2023-11-19T12:22:40;14.20;99.90
9450;DHT22;4763;48.370;10.874;2023-11-19T12:25:09;14.30;99.90
9450;DHT22;4763;48.370;10.874;2023-11-19T12:27:38;14.30;99.90
9450;DHT22;4763;48.370;10.874;2023-11-19T12:30:07;14.30;99.90
9450;DHT22;4763;48.370;10.874;2023-11-19T12:32:40;14.30;99.90
9450;DHT22;4763;48.370;10.874;2023-11-19T12:35:08;14.20;99.90
9450;DHT22;4763;48.370;10.874;2023-11-19T12:37:41;14.10;99.90
9450;DHT22;4763;48.370;10.874;2023-11-19T12:40:15;14.00;99.90
9450;DHT22;4763;48.370;10.874;2023-11-19T12:42:43;14.00;99.90
9450;DHT22;4763;48.370;10.874;2023-11-19T12:45:10;13.90;99.90
9450;DHT22;4763;48.370;10.874;2023-11-19T12:47:38;13.90;99.90
9450;DHT22;4763;48.370;10.874;2023-11-19T12:50:05;14.00;99.90
9450;DHT22;4763;48.370;10.874;2023-11-19T12:52:33;14.00;99.90
9450;DHT22;4763;48.370;10.874;2023-11-19T12:55:02;14.00;99.90
9450;DHT22;4763;48.370;10.874;2023-11-19T12:57:39;14.00;99.90
9450;DHT22;4763;48.370;10.874;2023-11-19T13:00:07;13.90;99.90
9450;DHT22;4763;48.370;10.874;2023-11-19T13:02:46;14.00;99.90
9450;DHT22;4763;48.370;10.874;2023-11-19T13:05:24;14.00;99.90
9450;DHT22;4763;48.370;10.874;2023-11-19T13:07:57;14.00;99.90
9450;DHT22;4763;48.370;10.874;2023-11-19T13:10:25;13.90;99.90
9450;DHT22;4763;48.370;10.874;2023-11-19T13:13:06;13.90;99.90
9450;DHT22;4763;48.370;10.874;2023-11-19T13:15:34;13.80;99.90
9450;DHT22;4763;48.370;10.874;2023-11-19T13:18:01;13.80;99.90
9450;DHT22;4763;48.370;10.874;2023-11-19T13:20:28;13.90;99.90
9450;DHT22;4763;48.370;10.874;2023-11-19T13:22:59;14.00;99.90
9450;DHT22;4763;48.370;10.874;2023-11-19T13:25:28;14.00;99.90
9450;DHT22;4763;48.370;10.874;2023-11-19T13:27:55;14.10;99.90
9450;DHT22;4763;48.370;10.874;2023-11-19T13:30:22;14.20;99.90
9450;DHT22;4763;48.370;10.874;2023-11-19T13:32:50;14.30;99.90
9450;DHT22;4763;48.370;10.874;2023-11-19T13:35:17;14.40;99.90
9450;DHT22;4763;48.370;10.874;2023-11-19T13:37:44;14.50;99.90
9450;DHT22;4763;48.370;10.874;2023-11-19T13:40:11;14.50;99.90
9450;DHT22;4763;48.370;10.874;2023-11-19T13:42:42;14.50;99.90
9450;DHT22;4763;48.370;10.874;2023-11-19T13:45:09;14.50;99.90
9450;DHT22;4763;48.370;10.874;2023-11-19T13:47:40;14.40;99.90
9450;DHT22;4763;48.370;10.874;2023-11-19T13:50:08;14.40;99.90
9450;DHT22;4763;48.370;10.874;2023-11-19T13:52:36;14.40;99.90
9450;DHT22;4763;48.370;10.874;2023-11-19T13:55:05;14.40;99.90
9450;DHT22;4763;48.370;10.874;2023-11-19T13:57:32;14.40;99.90
9450;DHT22;4763;48.370;10.874;2023-11-19T14:00:01;14.40;99.90
9450;DHT22;4763;48.370;10.874;2023-11-19T14:02:30;14.40;99.90
9450;DHT22;4763;48.370;10.874;2023-11-19T14:04:57;14.40;99.90
9450;DHT22;4763;48.370;10.874;2023-11-19T14:07:24;14.50;99.90
9450;DHT22;4763;48.370;10.874;2023-11-19T14:09:51;14.50;99.90
9450;DHT22;4763;48.370;10.874;2023-11-19T14:12:18;14.40;99.90
9450;DHT22;4763;48.370;10.874;2023-11-19T14:14:44;14.50;99.90
9450;DHT22;4763;48.370;10.874;2023-11-19T14:17:13;14.40;99.90
9450;DHT22;4763;48.370;10.874;2023-11-19T14:19:40;14.40;99.90
9450;DHT22;4763;48.370;10.874;2023-11-19T14:22:07;14.30;99.90
9450;DHT22;4763;48.370;10.874;2023-11-19T14:24:34;14.30;99.90
9450;DHT22;4763;48.370;10.874;2023-11-19T14:27:01;14.20;99.90
9450;DHT22;4763;48.370;10.874;2023-11-19T14:29:28;14.10;99.90
9450;DHT22;4763;48.370;10.874;2023-11-19T14:31:55;14.10;99.90
9450;DHT22;4763;48.370;10.874;2023-11-19T14:34:23;14.00;99.90
9450;DHT22;4763;48.370;10.874;2023-11-19T14:36:51;13.90;99.90
9450;DHT22;4763;48.370;10.874;2023-11-19T14:39:19;13.90;99.90
9450;DHT22;4763;48.370;10.874;2023-11-19T14:41:46;13.80;99.90
9450;DHT22;4763;48.370;10.874;2023-11-19T14:44:12;13.70;99.90
9450;DHT22;4763;48.370;10.874;2023-11-19T14:46:39;13.60;99.90
9450;DHT22;4763;48.370;10.874;2023-11-19T14:49:06;13.60;99.90
9450;DHT22;4763;48.370;10.874;2023-11-19T14:51:37;13.50;99.90
9450;DHT22;4763;48.370;10.874;2023-11-19T14:54:04;13.50;99.90
9450;DHT22;4763;48.370;10.874;2023-11-19T14:56:31;13.40;99.90
9450;DHT22;4763;48.370;10.874;2023-11-19T14:58:58;13.50;99.90
9450;DHT22;4763;48.370;10.874;2023-11-19T15:01:25;13.40;99.90
9450;DHT22;4763;48.370;10.874;2023-11-19T15:03:54;13.30;99.90
9450;DHT22;4763;48.370;10.874;2023-11-19T15:06:23;13.30;99.90
9450;DHT22;4763;48.370;10.874;2023-11-19T15:08:51;13.20;99.90
9450;DHT22;4763;48.370;10.874;2023-11-19T15:11:18;13.20;99.90
9450;DHT22;4763;48.370;10.874;2023-11-19T15:13:45;13.10;99.90
9450;DHT22;4763;48.370;10.874;2023-11-19T15:16:12;13.00;99.90
9450;DHT22;4763;48.370;10.874;2023-11-19T15:18:39;13.00;99.90
9450;DHT22;4763;48.370;10.874;2023-11-19T15:21:06;13.00;99.90
9450;DHT22;4763;48.370;10.874;2023-11-19T15:23:34;13.00;99.90
9450;DHT22;4763;48.370;10.874;2023-11-19T15:26:03;12.90;99.90
9450;DHT22;4763;48.370;10.874;2023-11-19T15:28:32;12.80;99.90
9450;DHT22;4763;48.370;10.874;2023-11-19T15:30:58;12.80;99.90
9450;DHT22;4763;48.370;10.874;2023-11-19T15:33:25;12.80;99.90
9450;DHT22;4763;48.370;10.874;2023-11-19T15:35:53;12.70;99.90
9450;DHT22;4763;48.370;10.874;2023-11-19T15:38:19;12.60;99.90
9450;DHT22;4763;48.370;10.874;2023-11-19T15:40:46;12.60;99.90
9450;DHT22;4763;48.370;10.874;2023-11-19T15:43:14;12.60;99.90
9450;DHT22;4763;48.370;10.874;2023-11-19T15:45:41;12.60;99.90
9450;DHT22;4763;48.370;10.874;2023-11-19T15:48:07;12.60;99.90
9450;DHT22;4763;48.370;10.874;2023-11-19T15:50:34;12.50;99.90
9450;DHT22;4763;48.370;10.874;2023-11-19T15:53:01;12.40;99.90
9450;DHT22;4763;48.370;10.874;2023-11-19T15:55:28;12.30;99.90
9450;DHT22;4763;48.370;10.874;2023-11-19T15:57:54;12.40;99.90
9450;DHT22;4763;48.370;10.874;2023-11-19T16:00:22;12.40;99.90
9450;DHT22;4763;48.370;10.874;2023-11-19T16:02:49;12.40;99.90